KDTN/DTN METAR and TAF weather

Enter ICAO airport designator
Station Type Date Time Source
KDTN METAR 2021/01/17 17:53 UTC NOAA

KDTN 171753Z 32007KT 10SM BKN120 11/M04 A3009 RMK AO2 SLP188 T01111039 10111 20033 50003


Station Type Date Time Source
KDTN Decoded METAR 2021/01/17 17:53 UTC NOAA

SHREVEPORT DOWNTOWN AIRPORT, LA, United States (KDTN) 32-32N 093-45W 53M
Jan 17, 2021 - 12:53 PM EST / 2021.01.17 1753 UTC
Wind: from the NW (320 degrees) at 8 MPH (7 KT):0
Visibility: 10 mile(s):0
Sky conditions: mostly cloudy
Temperature: 52.0 F (11.1 C)
Dew Point: 25.0 F (-3.9 C)
Relative Humidity: 34%
Pressure (altimeter): 30.09 in. Hg (1018 hPa)
Pressure tendency: 0.01 inches (0.3 hPa) higher than three hours ago
ob: KDTN 171753Z 32007KT 10SM BKN120 11/M04 A3009 RMK AO2 SLP188 T01111039 10111 20033 50003
cycle: 18

Station Type Date Time Source
KDTN TAF UTC NOAA

Error!

Example: see airport list